sensor_id;sensor_type;location;lat;lon;timestamp;temperature;humidity
1297;DHT22;641;48.492;9.184;2023-04-24T00:01:54;12.90;99.90
1297;DHT22;641;48.492;9.184;2023-04-24T00:04:20;13.10;99.90
1297;DHT22;641;48.492;9.184;2023-04-24T00:06:46;12.90;99.90
1297;DHT22;641;48.492;9.184;2023-04-24T00:09:14;12.90;99.90
1297;DHT22;641;48.492;9.184;2023-04-24T00:11:41;12.90;99.90
1297;DHT22;641;48.492;9.184;2023-04-24T00:14:06;12.80;99.90
1297;DHT22;641;48.492;9.184;2023-04-24T00:16:32;12.90;99.90
1297;DHT22;641;48.492;9.184;2023-04-24T00:18:57;13.00;99.90
1297;DHT22;641;48.492;9.184;2023-04-24T00:21:23;12.80;99.90
1297;DHT22;641;48.492;9.184;2023-04-24T00:23:51;12.80;99.90
1297;DHT22;641;48.492;9.184;2023-04-24T00:26:16;12.70;99.90
1297;DHT22;641;48.492;9.184;2023-04-24T00:28:42;12.90;99.90
1297;DHT22;641;48.492;9.184;2023-04-24T00:31:07;12.80;99.90
1297;DHT22;641;48.492;9.184;2023-04-24T00:33:33;12.70;99.90
1297;DHT22;641;48.492;9.184;2023-04-24T00:35:59;12.60;99.90
1297;DHT22;641;48.492;9.184;2023-04-24T00:38:25;12.70;99.90
1297;DHT22;641;48.492;9.184;2023-04-24T00:40:50;12.80;99.90
1297;DHT22;641;48.492;9.184;2023-04-24T00:43:16;12.60;99.90
1297;DHT22;641;48.492;9.184;2023-04-24T00:45:42;12.80;99.90
1297;DHT22;641;48.492;9.184;2023-04-24T00:48:08;12.80;99.90
1297;DHT22;641;48.492;9.184;2023-04-24T00:50:36;12.80;99.90
1297;DHT22;641;48.492;9.184;2023-04-24T00:53:01;13.10;99.90
1297;DHT22;641;48.492;9.184;2023-04-24T00:55:27;13.20;99.90
1297;DHT22;641;48.492;9.184;2023-04-24T00:57:53;12.90;99.90
1297;DHT22;641;48.492;9.184;2023-04-24T01:00:19;12.80;99.90
1297;DHT22;641;48.492;9.184;2023-04-24T01:02:44;12.60;99.90
1297;DHT22;641;48.492;9.184;2023-04-24T01:05:12;12.70;99.90
1297;DHT22;641;48.492;9.184;2023-04-24T01:07:39;12.80;99.90
1297;DHT22;641;48.492;9.184;2023-04-24T01:10:06;12.90;99.90
1297;DHT22;641;48.492;9.184;2023-04-24T01:12:33;12.70;99.90
1297;DHT22;641;48.492;9.184;2023-04-24T01:14:58;12.70;99.90
1297;DHT22;641;48.492;9.184;2023-04-24T01:17:24;12.60;99.90
1297;DHT22;641;48.492;9.184;2023-04-24T01:19:50;12.40;99.90
1297;DHT22;641;48.492;9.184;2023-04-24T01:22:18;12.40;99.90
1297;DHT22;641;48.492;9.184;2023-04-24T01:24:46;12.50;99.90
1297;DHT22;641;48.492;9.184;2023-04-24T01:27:12;12.10;99.90
1297;DHT22;641;48.492;9.184;2023-04-24T01:29:37;12.20;99.90
1297;DHT22;641;48.492;9.184;2023-04-24T01:32:04;12.30;99.90
1297;DHT22;641;48.492;9.184;2023-04-24T01:34:30;12.40;99.90
1297;DHT22;641;48.492;9.184;2023-04-24T01:36:55;12.60;99.90
1297;DHT22;641;48.492;9.184;2023-04-24T01:39:22;12.40;99.90
1297;DHT22;641;48.492;9.184;2023-04-24T01:41:48;12.40;99.90
1297;DHT22;641;48.492;9.184;2023-04-24T01:44:15;12.10;99.90
1297;DHT22;641;48.492;9.184;2023-04-24T01:46:41;12.10;99.90
1297;DHT22;641;48.492;9.184;2023-04-24T01:49:07;12.00;99.90
1297;DHT22;641;48.492;9.184;2023-04-24T01:51:32;12.10;99.90
1297;DHT22;641;48.492;9.184;2023-04-24T01:53:58;12.10;99.90
1297;DHT22;641;48.492;9.184;2023-04-24T01:56:24;12.00;99.90
1297;DHT22;641;48.492;9.184;2023-04-24T01:58:52;12.10;99.90
1297;DHT22;641;48.492;9.184;2023-04-24T02:01:23;11.70;99.90
1297;DHT22;641;48.492;9.184;2023-04-24T02:03:50;11.80;99.90
1297;DHT22;641;48.492;9.184;2023-04-24T02:06:15;11.90;99.90
1297;DHT22;641;48.492;9.184;2023-04-24T02:08:41;12.10;99.90
1297;DHT22;641;48.492;9.184;2023-04-24T02:11:08;11.90;99.90
1297;DHT22;641;48.492;9.184;2023-04-24T02:13:34;11.90;99.90
1297;DHT22;641;48.492;9.184;2023-04-24T02:16:00;11.80;99.90
1297;DHT22;641;48.492;9.184;2023-04-24T02:18:25;11.90;99.90
1297;DHT22;641;48.492;9.184;2023-04-24T02:20:51;12.00;99.90
1297;DHT22;641;48.492;9.184;2023-04-24T02:23:16;12.00;99.90
1297;DHT22;641;48.492;9.184;2023-04-24T02:25:42;12.00;99.90
1297;DHT22;641;48.492;9.184;2023-04-24T02:28:07;11.80;99.90
1297;DHT22;641;48.492;9.184;2023-04-24T02:30:33;12.10;99.90
1297;DHT22;641;48.492;9.184;2023-04-24T02:32:58;11.90;99.90
1297;DHT22;641;48.492;9.184;2023-04-24T02:35:25;11.80;99.90
1297;DHT22;641;48.492;9.184;2023-04-24T02:37:50;11.70;99.90
1297;DHT22;641;48.492;9.184;2023-04-24T02:40:16;11.60;99.90
1297;DHT22;641;48.492;9.184;2023-04-24T02:42:41;11.60;99.90
1297;DHT22;641;48.492;9.184;2023-04-24T02:45:07;11.60;99.90
1297;DHT22;641;48.492;9.184;2023-04-24T02:47:33;11.50;99.90
1297;DHT22;641;48.492;9.184;2023-04-24T02:49:58;11.50;99.90
1297;DHT22;641;48.492;9.184;2023-04-24T02:52:24;11.60;99.90
1297;DHT22;641;48.492;9.184;2023-04-24T02:54:50;11.70;99.90
1297;DHT22;641;48.492;9.184;2023-04-24T02:57:15;11.80;99.90
1297;DHT22;641;48.492;9.184;2023-04-24T02:59:41;11.70;99.90
1297;DHT22;641;48.492;9.184;2023-04-24T03:02:06;11.60;99.90
1297;DHT22;641;48.492;9.184;2023-04-24T03:04:32;11.60;99.90
1297;DHT22;641;48.492;9.184;2023-04-24T03:06:57;11.70;99.90
1297;DHT22;641;48.492;9.184;2023-04-24T03:09:24;12.00;99.90
1297;DHT22;641;48.492;9.184;2023-04-24T03:11:49;11.70;99.90
1297;DHT22;641;48.492;9.184;2023-04-24T03:14:16;11.50;99.90
1297;DHT22;641;48.492;9.184;2023-04-24T03:16:41;11.10;99.90
1297;DHT22;641;48.492;9.184;2023-04-24T03:19:07;10.90;99.90
1297;DHT22;641;48.492;9.184;2023-04-24T03:21:33;10.80;99.90
1297;DHT22;641;48.492;9.184;2023-04-24T03:23:58;10.90;99.90
1297;DHT22;641;48.492;9.184;2023-04-24T03:26:24;11.10;99.90
1297;DHT22;641;48.492;9.184;2023-04-24T03:28:50;11.10;99.90
1297;DHT22;641;48.492;9.184;2023-04-24T03:31:15;11.30;99.90
1297;DHT22;641;48.492;9.184;2023-04-24T03:33:42;11.30;99.90
1297;DHT22;641;48.492;9.184;2023-04-24T03:36:07;11.20;99.90
1297;DHT22;641;48.492;9.184;2023-04-24T03:38:33;11.30;99.90
1297;DHT22;641;48.492;9.184;2023-04-24T03:40:58;11.10;99.90
1297;DHT22;641;48.492;9.184;2023-04-24T03:43:24;11.00;99.90
1297;DHT22;641;48.492;9.184;2023-04-24T03:45:49;11.20;99.90
1297;DHT22;641;48.492;9.184;2023-04-24T03:48:15;11.30;99.90
1297;DHT22;641;48.492;9.184;2023-04-24T03:50:40;11.40;99.90
1297;DHT22;641;48.492;9.184;2023-04-24T03:53:06;11.60;99.90
1297;DHT22;641;48.492;9.184;2023-04-24T03:55:32;11.40;99.90
1297;DHT22;641;48.492;9.184;2023-04-24T03:57:57;11.40;99.90
1297;DHT22;641;48.492;9.184;2023-04-24T04:00:23;11.40;99.90
1297;DHT22;641;48.492;9.184;2023-04-24T04:02:48;11.30;99.90
1297;DHT22;641;48.492;9.184;2023-04-24T04:05:14;11.40;99.90
1297;DHT22;641;48.492;9.184;2023-04-24T04:07:40;11.50;99.90
1297;DHT22;641;48.492;9.184;2023-04-24T04:10:05;11.30;99.90
1297;DHT22;641;48.492;9.184;2023-04-24T04:12:32;11.20;99.90
1297;DHT22;641;48.492;9.184;2023-04-24T04:14:58;11.40;99.90
1297;DHT22;641;48.492;9.184;2023-04-24T04:17:23;11.40;99.90
1297;DHT22;641;48.492;9.184;2023-04-24T04:19:49;11.40;99.90
1297;DHT22;641;48.492;9.184;2023-04-24T04:22:14;11.40;99.90
1297;DHT22;641;48.492;9.184;2023-04-24T04:24:40;11.40;99.90
1297;DHT22;641;48.492;9.184;2023-04-24T04:27:06;11.30;99.90
1297;DHT22;641;48.492;9.184;2023-04-24T04:29:32;11.50;99.90
1297;DHT22;641;48.492;9.184;2023-04-24T04:31:58;11.50;99.90
1297;DHT22;641;48.492;9.184;2023-04-24T04:34:24;11.40;99.90
1297;DHT22;641;48.492;9.184;2023-04-24T04:36:49;11.30;99.90
1297;DHT22;641;48.492;9.184;2023-04-24T04:39:15;11.40;99.90
1297;DHT22;641;48.492;9.184;2023-04-24T04:41:41;11.30;99.90
1297;DHT22;641;48.492;9.184;2023-04-24T04:44:07;11.40;99.90
1297;DHT22;641;48.492;9.184;2023-04-24T04:46:34;11.20;99.90
1297;DHT22;641;48.492;9.184;2023-04-24T04:49:02;10.90;99.90
1297;DHT22;641;48.492;9.184;2023-04-24T04:51:28;10.80;99.90
1297;DHT22;641;48.492;9.184;2023-04-24T04:53:54;10.50;99.90
1297;DHT22;641;48.492;9.184;2023-04-24T04:56:20;10.30;99.90
1297;DHT22;641;48.492;9.184;2023-04-24T04:58:45;10.20;99.90
1297;DHT22;641;48.492;9.184;2023-04-24T05:01:11;10.00;99.90
1297;DHT22;641;48.492;9.184;2023-04-24T05:03:36;9.90;99.90
1297;DHT22;641;48.492;9.184;2023-04-24T05:06:02;10.00;99.90
1297;DHT22;641;48.492;9.184;2023-04-24T05:08:28;10.20;99.90
1297;DHT22;641;48.492;9.184;2023-04-24T05:10:54;10.40;99.90
1297;DHT22;641;48.492;9.184;2023-04-24T05:13:20;10.40;99.90
1297;DHT22;641;48.492;9.184;2023-04-24T05:15:46;10.50;99.90
1297;DHT22;641;48.492;9.184;2023-04-24T05:20:38;10.60;99.90
1297;DHT22;641;48.492;9.184;2023-04-24T05:23:03;10.50;99.90
1297;DHT22;641;48.492;9.184;2023-04-24T05:25:29;10.30;99.90
1297;DHT22;641;48.492;9.184;2023-04-24T05:27:55;10.30;99.90
1297;DHT22;641;48.492;9.184;2023-04-24T05:30:21;10.50;99.90
1297;DHT22;641;48.492;9.184;2023-04-24T05:32:46;10.40;99.90
1297;DHT22;641;48.492;9.184;2023-04-24T05:35:12;10.50;99.90
1297;DHT22;641;48.492;9.184;2023-04-24T05:37:37;10.40;99.90
1297;DHT22;641;48.492;9.184;2023-04-24T05:40:03;10.10;99.90
1297;DHT22;641;48.492;9.184;2023-04-24T05:42:31;10.20;99.90
1297;DHT22;641;48.492;9.184;2023-04-24T05:44:56;9.90;99.90
1297;DHT22;641;48.492;9.184;2023-04-24T05:47:22;9.90;99.90
1297;DHT22;641;48.492;9.184;2023-04-24T05:49:48;10.10;99.90
1297;DHT22;641;48.492;9.184;2023-04-24T05:52:13;10.20;99.90
1297;DHT22;641;48.492;9.184;2023-04-24T05:54:39;10.40;99.90
1297;DHT22;641;48.492;9.184;2023-04-24T05:57:04;10.40;99.90
1297;DHT22;641;48.492;9.184;2023-04-24T05:59:34;10.30;99.90
1297;DHT22;641;48.492;9.184;2023-04-24T06:02:00;10.60;99.90
1297;DHT22;641;48.492;9.184;2023-04-24T06:04:25;10.20;99.90
1297;DHT22;641;48.492;9.184;2023-04-24T06:06:51;10.10;99.90
1297;DHT22;641;48.492;9.184;2023-04-24T06:09:21;10.30;99.90
1297;DHT22;641;48.492;9.184;2023-04-24T06:11:47;10.40;99.90
1297;DHT22;641;48.492;9.184;2023-04-24T06:14:12;10.20;99.90
1297;DHT22;641;48.492;9.184;2023-04-24T06:16:39;10.30;99.90
1297;DHT22;641;48.492;9.184;2023-04-24T06:19:05;10.40;99.90
1297;DHT22;641;48.492;9.184;2023-04-24T06:21:30;10.60;99.90
1297;DHT22;641;48.492;9.184;2023-04-24T06:23:56;10.80;99.90
1297;DHT22;641;48.492;9.184;2023-04-24T06:26:23;10.90;99.90
1297;DHT22;641;48.492;9.184;2023-04-24T06:28:50;10.80;99.90
1297;DHT22;641;48.492;9.184;2023-04-24T06:31:16;10.90;99.90
1297;DHT22;641;48.492;9.184;2023-04-24T06:33:42;11.00;99.90
1297;DHT22;641;48.492;9.184;2023-04-24T06:36:08;10.90;99.90
1297;DHT22;641;48.492;9.184;2023-04-24T06:38:34;11.00;99.90
1297;DHT22;641;48.492;9.184;2023-04-24T06:40:59;11.10;99.90
1297;DHT22;641;48.492;9.184;2023-04-24T06:43:25;11.20;99.90
1297;DHT22;641;48.492;9.184;2023-04-24T06:45:51;10.90;99.90
1297;DHT22;641;48.492;9.184;2023-04-24T06:48:16;10.90;99.90
1297;DHT22;641;48.492;9.184;2023-04-24T06:50:42;11.10;99.90
1297;DHT22;641;48.492;9.184;2023-04-24T06:53:07;11.00;99.90
1297;DHT22;641;48.492;9.184;2023-04-24T06:55:35;11.40;99.90
1297;DHT22;641;48.492;9.184;2023-04-24T06:58:01;11.40;99.90
1297;DHT22;641;48.492;9.184;2023-04-24T07:00:26;11.50;99.90
1297;DHT22;641;48.492;9.184;2023-04-24T07:02:52;11.50;99.90
1297;DHT22;641;48.492;9.184;2023-04-24T07:05:18;11.60;99.90
1297;DHT22;641;48.492;9.184;2023-04-24T07:10:12;11.70;99.90
1297;DHT22;641;48.492;9.184;2023-04-24T07:12:40;11.90;99.90
1297;DHT22;641;48.492;9.184;2023-04-24T07:15:08;11.90;99.90
1297;DHT22;641;48.492;9.184;2023-04-24T07:17:34;12.10;99.90
1297;DHT22;641;48.492;9.184;2023-04-24T07:20:00;12.20;99.90
1297;DHT22;641;48.492;9.184;2023-04-24T07:22:26;12.40;99.90
1297;DHT22;641;48.492;9.184;2023-04-24T07:24:51;12.40;99.90
1297;DHT22;641;48.492;9.184;2023-04-24T07:27:17;11.90;99.90
1297;DHT22;641;48.492;9.184;2023-04-24T07:29:43;12.20;99.90
1297;DHT22;641;48.492;9.184;2023-04-24T07:32:08;12.10;99.90
1297;DHT22;641;48.492;9.184;2023-04-24T07:38:34;11.60;99.90
1297;DHT22;641;48.492;9.184;2023-04-24T07:45:05;10.90;99.90
1297;DHT22;641;48.492;9.184;2023-04-24T08:46:46;11.30;99.90
1297;DHT22;641;48.492;9.184;2023-04-24T08:49:19;11.40;99.90
1297;DHT22;641;48.492;9.184;2023-04-24T08:58:51;11.30;99.90
1297;DHT22;641;48.492;9.184;2023-04-24T09:01:26;11.80;99.90
1297;DHT22;641;48.492;9.184;2023-04-24T09:04:33;11.30;99.90
1297;DHT22;641;48.492;9.184;2023-04-24T09:07:53;11.50;99.90
1297;DHT22;641;48.492;9.184;2023-04-24T09:10:22;11.30;99.90
1297;DHT22;641;48.492;9.184;2023-04-24T09:12:58;11.50;99.90
1297;DHT22;641;48.492;9.184;2023-04-24T09:15:51;11.70;99.90
1297;DHT22;641;48.492;9.184;2023-04-24T09:18:34;12.00;99.90
1297;DHT22;641;48.492;9.184;2023-04-24T09:21:15;11.60;99.90
1297;DHT22;641;48.492;9.184;2023-04-24T09:23:58;11.70;99.90
1297;DHT22;641;48.492;9.184;2023-04-24T09:26:24;11.70;99.90
1297;DHT22;641;48.492;9.184;2023-04-24T09:29:02;11.70;99.90
1297;DHT22;641;48.492;9.184;2023-04-24T09:31:36;11.60;99.90
1297;DHT22;641;48.492;9.184;2023-04-24T09:34:42;11.10;99.90
1297;DHT22;641;48.492;9.184;2023-04-24T09:40:15;12.10;99.90
1297;DHT22;641;48.492;9.184;2023-04-24T09:43:00;11.80;99.90
1297;DHT22;641;48.492;9.184;2023-04-24T09:45:36;11.70;99.90
1297;DHT22;641;48.492;9.184;2023-04-24T09:51:36;11.90;99.90
1297;DHT22;641;48.492;9.184;2023-04-24T09:54:15;12.20;99.90
1297;DHT22;641;48.492;9.184;2023-04-24T09:56:49;12.30;99.90
1297;DHT22;641;48.492;9.184;2023-04-24T09:59:19;12.20;99.90
1297;DHT22;641;48.492;9.184;2023-04-24T10:01:46;12.30;99.90
1297;DHT22;641;48.492;9.184;2023-04-24T10:06:42;13.10;99.90
1297;DHT22;641;48.492;9.184;2023-04-24T10:09:08;13.00;99.90
1297;DHT22;641;48.492;9.184;2023-04-24T10:11:37;13.20;99.90
1297;DHT22;641;48.492;9.184;2023-04-24T10:14:03;12.60;99.90
1297;DHT22;641;48.492;9.184;2023-04-24T10:16:30;12.60;99.90
1297;DHT22;641;48.492;9.184;2023-04-24T10:18:59;12.30;99.90
1297;DHT22;641;48.492;9.184;2023-04-24T10:21:26;12.00;99.90
1297;DHT22;641;48.492;9.184;2023-04-24T10:23:53;12.00;99.90
1297;DHT22;641;48.492;9.184;2023-04-24T10:26:20;12.60;99.90
1297;DHT22;641;48.492;9.184;2023-04-24T10:28:47;12.70;99.90
1297;DHT22;641;48.492;9.184;2023-04-24T10:31:14;13.20;99.90
1297;DHT22;641;48.492;9.184;2023-04-24T10:33:43;13.10;99.90
1297;DHT22;641;48.492;9.184;2023-04-24T10:36:11;14.30;99.90
1297;DHT22;641;48.492;9.184;2023-04-24T10:38:40;12.50;99.90
1297;DHT22;641;48.492;9.184;2023-04-24T10:41:12;12.30;99.40
1297;DHT22;641;48.492;9.184;2023-04-24T10:44:03;14.00;99.90
1297;DHT22;641;48.492;9.184;2023-04-24T10:46:31;12.90;99.50
1297;DHT22;641;48.492;9.184;2023-04-24T10:48:57;13.10;99.70
1297;DHT22;641;48.492;9.184;2023-04-24T10:51:24;12.70;98.50
1297;DHT22;641;48.492;9.184;2023-04-24T10:53:51;13.10;99.00
1297;DHT22;641;48.492;9.184;2023-04-24T10:56:17;13.10;99.20
1297;DHT22;641;48.492;9.184;2023-04-24T10:58:51;12.60;99.20
1297;DHT22;641;48.492;9.184;2023-04-24T11:01:33;12.40;99.80
1297;DHT22;641;48.492;9.184;2023-04-24T11:04:03;12.40;99.90
1297;DHT22;641;48.492;9.184;2023-04-24T11:06:30;12.50;99.90
1297;DHT22;641;48.492;9.184;2023-04-24T11:09:25;12.00;99.90
1297;DHT22;641;48.492;9.184;2023-04-24T11:12:05;11.50;99.90
1297;DHT22;641;48.492;9.184;2023-04-24T11:17:37;11.40;99.90
1297;DHT22;641;48.492;9.184;2023-04-24T11:20:04;11.20;99.90
1297;DHT22;641;48.492;9.184;2023-04-24T11:22:34;11.50;99.90
1297;DHT22;641;48.492;9.184;2023-04-24T11:25:01;11.50;99.90
1297;DHT22;641;48.492;9.184;2023-04-24T11:27:43;12.00;99.90
1297;DHT22;641;48.492;9.184;2023-04-24T11:30:10;12.10;99.90
1297;DHT22;641;48.492;9.184;2023-04-24T11:32:40;12.10;99.90
1297;DHT22;641;48.492;9.184;2023-04-24T11:35:14;12.10;99.90
1297;DHT22;641;48.492;9.184;2023-04-24T11:37:42;12.40;99.90
1297;DHT22;641;48.492;9.184;2023-04-24T11:40:10;12.20;99.90
1297;DHT22;641;48.492;9.184;2023-04-24T11:42:38;12.60;99.90
1297;DHT22;641;48.492;9.184;2023-04-24T11:45:12;12.80;99.90
1297;DHT22;641;48.492;9.184;2023-04-24T11:47:39;12.50;99.90
1297;DHT22;641;48.492;9.184;2023-04-24T11:50:07;12.20;99.90
1297;DHT22;641;48.492;9.184;2023-04-24T11:52:37;12.00;99.90
1297;DHT22;641;48.492;9.184;2023-04-24T11:55:03;12.00;99.90
1297;DHT22;641;48.492;9.184;2023-04-24T11:57:29;12.00;99.90
1297;DHT22;641;48.492;9.184;2023-04-24T12:00:03;11.80;99.90
1297;DHT22;641;48.492;9.184;2023-04-24T12:02:30;11.90;99.90
1297;DHT22;641;48.492;9.184;2023-04-24T12:04:56;11.90;99.90
1297;DHT22;641;48.492;9.184;2023-04-24T12:07:22;12.10;99.90
1297;DHT22;641;48.492;9.184;2023-04-24T12:09:57;12.10;99.90
1297;DHT22;641;48.492;9.184;2023-04-24T12:12:26;12.00;99.90
1297;DHT22;641;48.492;9.184;2023-04-24T12:14:58;11.90;99.90
1297;DHT22;641;48.492;9.184;2023-04-24T12:17:29;12.00;99.90
1297;DHT22;641;48.492;9.184;2023-04-24T12:40:06;11.90;99.90
1297;DHT22;641;48.492;9.184;2023-04-24T12:42:32;12.10;99.90
1297;DHT22;641;48.492;9.184;2023-04-24T12:44:59;12.10;99.90
1297;DHT22;641;48.492;9.184;2023-04-24T12:47:26;12.10;99.90
1297;DHT22;641;48.492;9.184;2023-04-24T12:49:52;12.30;99.90
1297;DHT22;641;48.492;9.184;2023-04-24T12:52:18;12.60;99.90
1297;DHT22;641;48.492;9.184;2023-04-24T12:54:45;12.30;99.90
1297;DHT22;641;48.492;9.184;2023-04-24T12:57:11;12.40;99.90
1297;DHT22;641;48.492;9.184;2023-04-24T12:59:36;12.10;99.90
1297;DHT22;641;48.492;9.184;2023-04-24T13:02:02;12.30;99.90
1297;DHT22;641;48.492;9.184;2023-04-24T13:04:28;12.40;99.90
1297;DHT22;641;48.492;9.184;2023-04-24T13:06:53;12.60;99.90
1297;DHT22;641;48.492;9.184;2023-04-24T13:09:19;12.60;99.90
1297;DHT22;641;48.492;9.184;2023-04-24T13:11:44;12.60;99.90
1297;DHT22;641;48.492;9.184;2023-04-24T13:14:10;12.60;99.90
1297;DHT22;641;48.492;9.184;2023-04-24T13:16:35;11.80;99.90
1297;DHT22;641;48.492;9.184;2023-04-24T13:19:01;11.90;99.90
1297;DHT22;641;48.492;9.184;2023-04-24T13:21:27;12.20;99.90
1297;DHT22;641;48.492;9.184;2023-04-24T13:23:52;12.20;99.90
1297;DHT22;641;48.492;9.184;2023-04-24T13:26:18;12.60;99.90
1297;DHT22;641;48.492;9.184;2023-04-24T13:28:43;13.30;99.90
1297;DHT22;641;48.492;9.184;2023-04-24T13:31:09;13.50;99.60
1297;DHT22;641;48.492;9.184;2023-04-24T13:33:35;13.30;99.30
1297;DHT22;641;48.492;9.184;2023-04-24T13:36:01;13.50;99.50
1297;DHT22;641;48.492;9.184;2023-04-24T13:38:26;13.30;98.80
1297;DHT22;641;48.492;9.184;2023-04-24T13:40:52;13.10;99.60
1297;DHT22;641;48.492;9.184;2023-04-24T13:43:17;13.00;99.70
1297;DHT22;641;48.492;9.184;2023-04-24T13:45:43;13.00;99.90
1297;DHT22;641;48.492;9.184;2023-04-24T13:48:08;13.30;99.50
1297;DHT22;641;48.492;9.184;2023-04-24T13:50:34;13.30;99.90
1297;DHT22;641;48.492;9.184;2023-04-24T13:53:02;13.80;99.90
1297;DHT22;641;48.492;9.184;2023-04-24T13:55:28;13.80;99.00
1297;DHT22;641;48.492;9.184;2023-04-24T13:57:54;14.10;99.00
1297;DHT22;641;48.492;9.184;2023-04-24T14:00:20;13.60;98.00
1297;DHT22;641;48.492;9.184;2023-04-24T14:02:46;13.30;98.80
1297;DHT22;641;48.492;9.184;2023-04-24T14:05:13;13.10;98.60
1297;DHT22;641;48.492;9.184;2023-04-24T14:07:40;13.30;98.30
1297;DHT22;641;48.492;9.184;2023-04-24T14:10:06;13.20;98.30
1297;DHT22;641;48.492;9.184;2023-04-24T14:12:32;13.20;98.80
1297;DHT22;641;48.492;9.184;2023-04-24T14:14:58;12.90;98.10
1297;DHT22;641;48.492;9.184;2023-04-24T14:17:23;12.90;99.00
1297;DHT22;641;48.492;9.184;2023-04-24T14:19:49;12.50;99.00
1297;DHT22;641;48.492;9.184;2023-04-24T14:22:17;12.80;99.20
1297;DHT22;641;48.492;9.184;2023-04-24T14:24:42;12.90;98.80
1297;DHT22;641;48.492;9.184;2023-04-24T14:27:08;12.50;98.00
1297;DHT22;641;48.492;9.184;2023-04-24T14:29:34;12.60;98.40
1297;DHT22;641;48.492;9.184;2023-04-24T14:31:59;12.50;98.40
1297;DHT22;641;48.492;9.184;2023-04-24T14:34:25;12.00;98.10
1297;DHT22;641;48.492;9.184;2023-04-24T14:36:50;12.10;98.80
1297;DHT22;641;48.492;9.184;2023-04-24T14:39:16;12.10;98.90
1297;DHT22;641;48.492;9.184;2023-04-24T14:41:41;12.00;98.70
1297;DHT22;641;48.492;9.184;2023-04-24T14:44:07;12.30;99.90
1297;DHT22;641;48.492;9.184;2023-04-24T14:46:33;12.50;99.90
1297;DHT22;641;48.492;9.184;2023-04-24T14:48:58;12.90;99.70
1297;DHT22;641;48.492;9.184;2023-04-24T14:51:24;12.10;98.70
1297;DHT22;641;48.492;9.184;2023-04-24T14:53:50;12.40;99.30
1297;DHT22;641;48.492;9.184;2023-04-24T14:56:17;12.30;98.80
1297;DHT22;641;48.492;9.184;2023-04-24T14:58:42;12.40;99.90
1297;DHT22;641;48.492;9.184;2023-04-24T15:01:08;12.50;99.90
1297;DHT22;641;48.492;9.184;2023-04-24T15:03:33;12.50;99.70
1297;DHT22;641;48.492;9.184;2023-04-24T15:05:59;12.10;99.90
1297;DHT22;641;48.492;9.184;2023-04-24T15:08:26;12.00;99.90
1297;DHT22;641;48.492;9.184;2023-04-24T15:10:51;12.00;99.90
1297;DHT22;641;48.492;9.184;2023-04-24T15:13:17;12.20;99.90
1297;DHT22;641;48.492;9.184;2023-04-24T15:15:43;12.30;99.90
1297;DHT22;641;48.492;9.184;2023-04-24T15:18:09;11.70;99.80
1297;DHT22;641;48.492;9.184;2023-04-24T15:20:37;11.90;99.90
1297;DHT22;641;48.492;9.184;2023-04-24T15:23:13;12.00;99.90
1297;DHT22;641;48.492;9.184;2023-04-24T15:25:38;12.10;99.90
1297;DHT22;641;48.492;9.184;2023-04-24T15:28:04;12.40;99.90
1297;DHT22;641;48.492;9.184;2023-04-24T15:30:31;12.40;99.90
1297;DHT22;641;48.492;9.184;2023-04-24T15:32:56;12.60;99.90
1297;DHT22;641;48.492;9.184;2023-04-24T15:35:22;12.60;99.90
1297;DHT22;641;48.492;9.184;2023-04-24T15:37:48;12.60;99.10
1297;DHT22;641;48.492;9.184;2023-04-24T15:40:14;12.50;98.90
1297;DHT22;641;48.492;9.184;2023-04-24T15:42:41;12.30;99.90
1297;DHT22;641;48.492;9.184;2023-04-24T15:45:08;12.50;99.00
1297;DHT22;641;48.492;9.184;2023-04-24T15:47:34;12.60;99.60
1297;DHT22;641;48.492;9.184;2023-04-24T15:50:01;12.60;99.10
1297;DHT22;641;48.492;9.184;2023-04-24T15:52:27;13.10;99.90
1297;DHT22;641;48.492;9.184;2023-04-24T15:54:52;12.90;99.60
1297;DHT22;641;48.492;9.184;2023-04-24T15:57:18;12.70;99.90
1297;DHT22;641;48.492;9.184;2023-04-24T15:59:44;12.30;99.90
1297;DHT22;641;48.492;9.184;2023-04-24T16:02:11;12.30;99.90
1297;DHT22;641;48.492;9.184;2023-04-24T16:04:49;12.20;99.90
1297;DHT22;641;48.492;9.184;2023-04-24T16:07:16;12.20;99.90
1297;DHT22;641;48.492;9.184;2023-04-24T16:09:44;12.40;99.90
1297;DHT22;641;48.492;9.184;2023-04-24T16:12:10;12.80;99.90
1297;DHT22;641;48.492;9.184;2023-04-24T16:14:36;12.70;99.90
1297;DHT22;641;48.492;9.184;2023-04-24T16:17:02;12.50;99.90
1297;DHT22;641;48.492;9.184;2023-04-24T16:19:28;12.50;99.90
1297;DHT22;641;48.492;9.184;2023-04-24T16:21:53;12.60;99.90
1297;DHT22;641;48.492;9.184;2023-04-24T16:24:23;12.50;99.90
1297;DHT22;641;48.492;9.184;2023-04-24T16:26:50;12.60;99.90
1297;DHT22;641;48.492;9.184;2023-04-24T16:29:16;12.70;99.90
1297;DHT22;641;48.492;9.184;2023-04-24T16:31:41;12.60;99.90
1297;DHT22;641;48.492;9.184;2023-04-24T16:34:07;12.60;99.90
1297;DHT22;641;48.492;9.184;2023-04-24T16:36:34;12.90;99.90
1297;DHT22;641;48.492;9.184;2023-04-24T16:39:00;12.70;99.50
1297;DHT22;641;48.492;9.184;2023-04-24T16:41:26;12.80;99.90
1297;DHT22;641;48.492;9.184;2023-04-24T16:43:52;12.70;99.90
1297;DHT22;641;48.492;9.184;2023-04-24T16:46:18;12.70;99.90
1297;DHT22;641;48.492;9.184;2023-04-24T16:48:43;12.90;99.90
1297;DHT22;641;48.492;9.184;2023-04-24T16:51:09;12.90;99.90
1297;DHT22;641;48.492;9.184;2023-04-24T16:53:35;13.20;99.90
1297;DHT22;641;48.492;9.184;2023-04-24T16:56:01;13.10;99.90
1297;DHT22;641;48.492;9.184;2023-04-24T16:58:26;13.10;99.90
1297;DHT22;641;48.492;9.184;2023-04-24T17:00:52;13.30;99.90
1297;DHT22;641;48.492;9.184;2023-04-24T17:03:17;13.50;99.90
1297;DHT22;641;48.492;9.184;2023-04-24T17:05:43;13.40;99.90
1297;DHT22;641;48.492;9.184;2023-04-24T17:08:09;13.20;99.90
1297;DHT22;641;48.492;9.184;2023-04-24T17:10:34;13.20;99.90
1297;DHT22;641;48.492;9.184;2023-04-24T17:13:00;13.20;98.90
1297;DHT22;641;48.492;9.184;2023-04-24T17:15:26;13.30;99.00
1297;DHT22;641;48.492;9.184;2023-04-24T17:17:51;13.40;98.30
1297;DHT22;641;48.492;9.184;2023-04-24T17:20:17;13.60;99.30
1297;DHT22;641;48.492;9.184;2023-04-24T17:22:43;14.00;98.80
1297;DHT22;641;48.492;9.184;2023-04-24T17:25:09;13.40;98.20
1297;DHT22;641;48.492;9.184;2023-04-24T17:27:36;13.20;99.00
1297;DHT22;641;48.492;9.184;2023-04-24T17:30:01;13.20;99.30
1297;DHT22;641;48.492;9.184;2023-04-24T17:32:28;13.10;99.10
1297;DHT22;641;48.492;9.184;2023-04-24T17:34:54;14.20;99.70
1297;DHT22;641;48.492;9.184;2023-04-24T17:37:19;14.30;99.50
1297;DHT22;641;48.492;9.184;2023-04-24T17:39:48;14.60;99.90
1297;DHT22;641;48.492;9.184;2023-04-24T17:42:14;13.30;99.50
1297;DHT22;641;48.492;9.184;2023-04-24T17:44:39;13.00;99.60
1297;DHT22;641;48.492;9.184;2023-04-24T17:47:07;12.80;99.40
1297;DHT22;641;48.492;9.184;2023-04-24T17:49:33;12.90;99.90
1297;DHT22;641;48.492;9.184;2023-04-24T17:51:58;13.00;99.90
1297;DHT22;641;48.492;9.184;2023-04-24T17:54:24;13.10;99.90
1297;DHT22;641;48.492;9.184;2023-04-24T17:56:50;12.90;99.90
1297;DHT22;641;48.492;9.184;2023-04-24T17:59:18;12.60;99.90
1297;DHT22;641;48.492;9.184;2023-04-24T18:01:43;12.80;99.90
1297;DHT22;641;48.492;9.184;2023-04-24T18:04:09;12.50;99.90
1297;DHT22;641;48.492;9.184;2023-04-24T18:06:35;12.50;99.90
1297;DHT22;641;48.492;9.184;2023-04-24T18:09:01;12.40;99.90